Time;durP1;ratioP1;P1;durP2;ratioP2;P2;SDS_P1;SDS_P2;PMS_P1;PMS_P2;Temp;Humidity;BMP_temperature;BMP_pressure;BME280_temperature;BME280_humidity;BME280_pressure;Samples;Min_cycle;Max_cycle;Signal;HPM_P1;HPM_P2
2023/06/27 00:00:43;;;;;;;4.82;1.15;;;;;;;;;;5283507;28;20442;-77
2023/06/27 00:03:14;;;;;;;3.72;0.88;;;;;;;;;;5285117;28;20013;-77
2023/06/27 00:05:46;;;;;;;4.40;1.08;;;;;;;;;;5285099;28;20526;-77
2023/06/27 00:08:17;;;;;;;4.93;0.90;;;;;;;;;;5285784;28;20024;-77
2023/06/27 00:10:48;;;;;;;5.88;1.10;;;;;;;;;;5284558;28;20024;-77
2023/06/27 00:13:20;;;;;;;4.80;1.00;;;;;;;;;;5285597;28;20009;-77
2023/06/27 00:15:54;;;;;;;3.58;1.20;;;;;;;;;;5285106;28;20346;-77
2023/06/27 00:18:34;;;;;;;7.22;1.08;;;;;;;;;;5284566;28;20027;-77
2023/06/27 00:21:05;;;;;;;6.32;1.05;;;;;;;;;;5285505;28;20032;-77
2023/06/27 00:23:36;;;;;;;4.90;1.30;;;;;;;;;;5284531;28;20342;-77
2023/06/27 00:26:08;;;;;;;5.53;1.23;;;;;;;;;;5285190;28;20032;-77
2023/06/27 00:28:39;;;;;;;4.72;1.33;;;;;;;;;;5284869;28;20304;-77
2023/06/27 00:31:10;;;;;;;5.35;1.40;;;;;;;;;;5284405;28;20024;-77
2023/06/27 00:33:42;;;;;;;6.35;1.00;;;;;;;;;;5284604;28;20458;-78
2023/06/27 00:36:14;;;;;;;6.93;1.15;;;;;;;;;;5285401;28;20491;-78
2023/06/27 00:38:45;;;;;;;5.25;1.20;;;;;;;;;;5283966;28;20172;-77
2023/06/27 00:41:16;;;;;;;3.58;1.05;;;;;;;;;;5285261;28;20024;-77
2023/06/27 00:43:48;;;;;;;4.70;1.33;;;;;;;;;;5284677;28;20099;-77
2023/06/27 00:46:26;;;;;;;6.63;0.95;;;;;;;;;;5284268;28;20028;-76
2023/06/27 00:48:57;;;;;;;5.10;1.05;;;;;;;;;;5284596;28;20021;-77
2023/06/27 00:51:29;;;;;;;5.05;1.00;;;;;;;;;;5283798;28;20048;-77
2023/06/27 00:54:00;;;;;;;5.28;1.20;;;;;;;;;;5284574;28;20111;-77
2023/06/27 00:56:32;;;;;;;4.30;1.27;;;;;;;;;;5284531;28;20100;-77
2023/06/27 00:59:03;;;;;;;5.63;1.10;;;;;;;;;;5283739;28;20103;-77
2023/06/27 01:01:34;;;;;;;4.90;1.00;;;;;;;;;;5284611;28;20024;-77
2023/06/27 01:04:05;;;;;;;4.63;1.50;;;;;;;;;;5284320;28;20013;-76
2023/06/27 01:06:44;;;;;;;6.45;1.30;;;;;;;;;;5283526;28;20145;-77
2023/06/27 01:09:20;;;;;;;5.93;1.40;;;;;;;;;;5284479;28;20548;-77
2023/06/27 01:11:56;;;;;;;4.57;1.20;;;;;;;;;;5283289;28;20047;-76
2023/06/27 01:14:29;;;;;;;3.47;1.10;;;;;;;;;;5283788;28;20336;-76
2023/06/27 01:17:02;;;;;;;7.43;1.20;;;;;;;;;;5284333;28;20024;-77
2023/06/27 01:19:34;;;;;;;6.75;1.60;;;;;;;;;;5284961;28;20066;-77
2023/06/27 01:22:07;;;;;;;7.28;1.38;;;;;;;;;;5291070;28;20020;-77
2023/06/27 01:24:38;;;;;;;5.47;1.40;;;;;;;;;;5286750;28;20025;-77
2023/06/27 01:27:13;;;;;;;5.28;1.20;;;;;;;;;;5284198;28;20008;-77
2023/06/27 01:29:44;;;;;;;7.05;1.40;;;;;;;;;;5283613;28;20020;-77
2023/06/27 01:32:26;;;;;;;5.35;1.38;;;;;;;;;;5284288;28;20051;-78
2023/06/27 01:35:00;;;;;;;6.60;1.33;;;;;;;;;;5283289;28;20024;-77
2023/06/27 01:37:36;;;;;;;6.53;1.30;;;;;;;;;;5283615;28;20037;-77
2023/06/27 01:40:08;;;;;;;8.23;0.98;;;;;;;;;;5283856;28;20040;-77
2023/06/27 01:42:42;;;;;;;6.72;1.17;;;;;;;;;;5282995;28;20029;-77
2023/06/27 01:45:14;;;;;;;7.53;1.55;;;;;;;;;;5283747;28;20052;-77
2023/06/27 01:47:46;;;;;;;3.20;0.90;;;;;;;;;;5282471;28;20424;-77
2023/06/27 01:50:17;;;;;;;5.30;1.20;;;;;;;;;;5283434;28;20020;-77
2023/06/27 01:52:48;;;;;;;4.95;1.27;;;;;;;;;;5283394;28;20490;-78
2023/06/27 01:55:20;;;;;;;8.65;1.33;;;;;;;;;;5283032;28;20023;-78
2023/06/27 01:57:51;;;;;;;6.68;1.73;;;;;;;;;;5283122;28;20498;-78
2023/06/27 02:00:22;;;;;;;5.70;1.30;;;;;;;;;;5283591;28;20119;-78
2023/06/27 02:02:53;;;;;;;8.27;1.30;;;;;;;;;;5282319;28;20539;-78
2023/06/27 02:05:24;;;;;;;7.25;1.80;;;;;;;;;;5283396;28;20302;-78
2023/06/27 02:07:55;;;;;;;6.53;1.57;;;;;;;;;;5283398;28;20044;-78
2023/06/27 02:10:27;;;;;;;8.50;1.40;;;;;;;;;;5282436;28;20275;-78
2023/06/27 02:12:59;;;;;;;6.22;1.20;;;;;;;;;;5283025;28;20452;-77
2023/06/27 02:15:30;;;;;;;9.50;0.95;;;;;;;;;;5283075;28;20477;-78
2023/06/27 02:18:04;;;;;;;4.72;1.00;;;;;;;;;;5282413;28;20017;-77
2023/06/27 02:20:35;;;;;;;8.70;1.30;;;;;;;;;;5283044;28;20024;-78
2023/06/27 02:23:06;;;;;;;3.93;1.00;;;;;;;;;;5281163;28;20013;-77
2023/06/27 02:25:38;;;;;;;5.80;1.17;;;;;;;;;;5282734;28;20737;-78
2023/06/27 02:28:09;;;;;;;6.38;1.67;;;;;;;;;;5282761;28;20012;-78
2023/06/27 02:30:41;;;;;;;6.23;1.10;;;;;;;;;;5281835;28;20020;-77
2023/06/27 02:33:12;;;;;;;7.43;1.33;;;;;;;;;;5283090;28;20286;-77
2023/06/27 02:35:43;;;;;;;6.03;1.10;;;;;;;;;;5282196;28;20024;-77
2023/06/27 02:38:14;;;;;;;6.70;1.35;;;;;;;;;;5282223;28;20361;-77
2023/06/27 02:40:46;;;;;;;9.53;1.53;;;;;;;;;;5282221;28;20027;-77
2023/06/27 02:43:17;;;;;;;3.90;0.98;;;;;;;;;;5282801;28;20749;-77
2023/06/27 02:45:48;;;;;;;7.38;1.30;;;;;;;;;;5281369;28;20021;-77
2023/06/27 02:48:19;;;;;;;4.57;1.00;;;;;;;;;;5282465;28;20027;-77
2023/06/27 02:50:50;;;;;;;10.82;1.27;;;;;;;;;;5281677;28;20060;-77
2023/06/27 02:53:22;;;;;;;7.47;1.15;;;;;;;;;;5281918;28;20016;-77
2023/06/27 02:55:53;;;;;;;7.00;1.00;;;;;;;;;;5281766;28;20070;-77
2023/06/27 02:58:24;;;;;;;4.00;0.80;;;;;;;;;;5281421;28;20013;-77
2023/06/27 03:00:56;;;;;;;8.68;1.30;;;;;;;;;;5282044;28;20048;-77
2023/06/27 03:03:27;;;;;;;7.53;1.33;;;;;;;;;;5281912;28;20012;-78
2023/06/27 03:06:02;;;;;;;7.75;1.17;;;;;;;;;;5281483;28;20493;-78
2023/06/27 03:08:34;;;;;;;10.93;1.77;;;;;;;;;;5282139;28;20012;-78
2023/06/27 03:11:05;;;;;;;5.95;1.30;;;;;;;;;;5281979;28;20099;-77
2023/06/27 03:13:36;;;;;;;8.15;1.17;;;;;;;;;;5281101;28;20052;-78
2023/06/27 03:16:08;;;;;;;10.45;1.35;;;;;;;;;;5282100;28;20047;-77
2023/06/27 03:18:39;;;;;;;4.53;1.13;;;;;;;;;;5281945;28;20062;-78
2023/06/27 03:21:10;;;;;;;7.22;1.25;;;;;;;;;;5281513;28;20017;-78
2023/06/27 03:23:41;;;;;;;4.40;1.13;;;;;;;;;;5281623;28;20020;-78
2023/06/27 03:26:13;;;;;;;6.88;1.25;;;;;;;;;;5281489;28;20052;-78
2023/06/27 03:28:44;;;;;;;5.20;1.27;;;;;;;;;;5281405;28;20008;-78
2023/06/27 03:31:15;;;;;;;8.37;1.30;;;;;;;;;;5282327;28;20383;-78
2023/06/27 03:33:46;;;;;;;4.60;1.30;;;;;;;;;;5280745;28;20304;-77
2023/06/27 03:36:18;;;;;;;4.00;0.82;;;;;;;;;;5281539;28;20267;-77
2023/06/27 03:38:50;;;;;;;5.95;1.25;;;;;;;;;;5281269;28;20013;-78
2023/06/27 03:41:22;;;;;;;6.13;1.33;;;;;;;;;;5281222;28;20027;-79
2023/06/27 03:43:53;;;;;;;8.02;1.40;;;;;;;;;;5281272;28;20363;-78
2023/06/27 03:46:24;;;;;;;5.78;0.93;;;;;;;;;;5281581;28;20033;-78
2023/06/27 03:48:58;;;;;;;9.70;1.38;;;;;;;;;;5280933;28;20467;-76
2023/06/27 03:51:29;;;;;;;4.93;1.05;;;;;;;;;;5281612;28;20429;-76
2023/06/27 03:54:02;;;;;;;9.48;1.25;;;;;;;;;;5281825;28;20070;-77
2023/06/27 03:56:33;;;;;;;10.20;1.33;;;;;;;;;;5285082;28;20028;-77
2023/06/27 03:59:05;;;;;;;5.55;1.25;;;;;;;;;;5284423;28;20016;-78
2023/06/27 04:01:39;;;;;;;5.20;1.30;;;;;;;;;;5281064;28;20024;-79
2023/06/27 04:04:10;;;;;;;5.38;1.17;;;;;;;;;;5282772;28;20383;-80
2023/06/27 04:06:41;;;;;;;6.53;1.43;;;;;;;;;;5281476;28;20036;-76
2023/06/27 04:09:12;;;;;;;6.03;1.08;;;;;;;;;;5281067;28;20416;-77
2023/06/27 04:11:44;;;;;;;5.50;1.20;;;;;;;;;;5281401;28;20020;-77
2023/06/27 04:14:17;;;;;;;9.55;1.55;;;;;;;;;;5281477;28;20055;-77
2023/06/27 04:16:48;;;;;;;5.40;1.10;;;;;;;;;;5280098;28;20031;-78
2023/06/27 04:19:19;;;;;;;5.75;1.20;;;;;;;;;;5281639;28;20371;-78
2023/06/27 04:21:50;;;;;;;5.43;1.33;;;;;;;;;;5280965;28;20025;-77
2023/06/27 04:24:22;;;;;;;7.70;1.43;;;;;;;;;;5280681;28;20490;-77
2023/06/27 04:26:53;;;;;;;7.35;1.40;;;;;;;;;;5280782;28;20663;-77
2023/06/27 04:29:24;;;;;;;7.57;1.13;;;;;;;;;;5281055;28;20055;-76
2023/06/27 04:31:55;;;;;;;10.35;1.70;;;;;;;;;;5280358;28;20742;-78
2023/06/27 04:34:26;;;;;;;9.02;1.67;;;;;;;;;;5281048;28;20044;-78
2023/06/27 04:36:58;;;;;;;5.17;1.30;;;;;;;;;;5280339;28;20016;-77
2023/06/27 04:39:29;;;;;;;6.85;1.60;;;;;;;;;;5281164;28;20255;-77
2023/06/27 04:42:01;;;;;;;9.70;1.83;;;;;;;;;;5281268;28;20020;-77
2023/06/27 04:44:32;;;;;;;10.93;1.80;;;;;;;;;;5280038;28;20017;-77
2023/06/27 04:47:04;;;;;;;7.78;1.75;;;;;;;;;;5281885;28;20487;-77
2023/06/27 04:49:35;;;;;;;7.18;1.60;;;;;;;;;;5284800;28;20024;-77
2023/06/27 04:52:06;;;;;;;7.22;1.98;;;;;;;;;;5283780;28;20049;-77
2023/06/27 04:54:37;;;;;;;6.28;1.35;;;;;;;;;;5284787;28;20032;-77
2023/06/27 04:57:08;;;;;;;6.10;1.15;;;;;;;;;;5284863;28;20131;-76
2023/06/27 04:59:40;;;;;;;6.37;1.17;;;;;;;;;;5283825;28;20020;-77
2023/06/27 05:02:11;;;;;;;6.70;1.75;;;;;;;;;;5284735;28;20617;-78
2023/06/27 05:04:42;;;;;;;8.80;1.60;;;;;;;;;;5283621;28;20613;-78
2023/06/27 05:07:13;;;;;;;7.30;1.27;;;;;;;;;;5284878;28;20027;-77
2023/06/27 05:09:44;;;;;;;7.82;1.80;;;;;;;;;;5284191;28;20425;-77
2023/06/27 05:12:16;;;;;;;8.10;1.77;;;;;;;;;;5283782;28;20021;-79
2023/06/27 05:14:47;;;;;;;6.88;1.20;;;;;;;;;;5283969;28;20320;-77
2023/06/27 05:17:18;;;;;;;5.00;1.35;;;;;;;;;;5284710;28;20027;-77
2023/06/27 05:19:49;;;;;;;8.50;1.57;;;;;;;;;;5283293;28;20039;-77
2023/06/27 05:22:20;;;;;;;10.43;1.53;;;;;;;;;;5284321;28;20270;-77
2023/06/27 05:24:51;;;;;;;9.95;1.90;;;;;;;;;;5283555;28;20374;-78
2023/06/27 05:27:23;;;;;;;11.93;2.40;;;;;;;;;;5283962;28;20023;-78
2023/06/27 05:29:54;;;;;;;9.13;1.48;;;;;;;;;;5283815;28;20016;-77
2023/06/27 05:32:25;;;;;;;10.50;1.48;;;;;;;;;;5283891;28;20021;-77
2023/06/27 05:34:56;;;;;;;11.37;1.90;;;;;;;;;;5283235;28;20025;-77
2023/06/27 05:37:28;;;;;;;8.68;1.92;;;;;;;;;;5283845;28;20262;-77
2023/06/27 05:39:59;;;;;;;8.38;2.30;;;;;;;;;;5282917;28;20731;-77
2023/06/27 05:42:30;;;;;;;9.38;1.73;;;;;;;;;;5283777;28;20017;-78
2023/06/27 05:45:02;;;;;;;11.48;2.28;;;;;;;;;;5283474;28;20169;-77
2023/06/27 05:47:33;;;;;;;11.32;2.40;;;;;;;;;;5282789;28;20017;-78
2023/06/27 05:50:05;;;;;;;8.55;1.80;;;;;;;;;;5283507;28;20020;-77
2023/06/27 05:52:36;;;;;;;8.32;2.13;;;;;;;;;;5283401;28;20087;-77
2023/06/27 05:55:07;;;;;;;10.48;1.77;;;;;;;;;;5283030;28;20525;-78
2023/06/27 05:57:38;;;;;;;8.38;2.20;;;;;;;;;;5283099;28;20414;-77
2023/06/27 06:00:10;;;;;;;11.10;2.13;;;;;;;;;;5283251;28;20025;-77
2023/06/27 06:02:42;;;;;;;12.32;2.55;;;;;;;;;;5282421;28;20409;-78
2023/06/27 06:05:14;;;;;;;10.15;2.50;;;;;;;;;;5283662;28;20503;-77
2023/06/27 06:07:47;;;;;;;10.48;2.03;;;;;;;;;;5282882;28;20027;-77
2023/06/27 06:10:18;;;;;;;7.40;2.15;;;;;;;;;;5282603;28;20028;-77
2023/06/27 06:12:50;;;;;;;8.60;1.95;;;;;;;;;;5282512;28;20017;-77
2023/06/27 06:15:21;;;;;;;8.20;2.75;;;;;;;;;;5282907;28;20129;-77
2023/06/27 06:17:52;;;;;;;9.68;2.40;;;;;;;;;;5282752;28;20073;-78
2023/06/27 06:20:23;;;;;;;13.23;3.33;;;;;;;;;;5283055;28;20077;-79
2023/06/27 06:22:55;;;;;;;10.38;2.53;;;;;;;;;;5282329;28;20085;-78
2023/06/27 06:25:26;;;;;;;7.93;2.53;;;;;;;;;;5282491;28;20106;-76
2023/06/27 06:27:58;;;;;;;9.70;2.72;;;;;;;;;;5284074;28;20024;-78
2023/06/27 06:30:29;;;;;;;9.43;2.50;;;;;;;;;;5282965;28;20025;-78
2023/06/27 06:33:00;;;;;;;8.97;2.30;;;;;;;;;;5289751;28;20495;-79
2023/06/27 06:35:31;;;;;;;10.80;2.30;;;;;;;;;;5284157;28;20263;-77
2023/06/27 06:38:03;;;;;;;10.18;2.95;;;;;;;;;;5282196;28;20023;-77
2023/06/27 06:40:34;;;;;;;13.85;3.08;;;;;;;;;;5282709;28;20127;-77
2023/06/27 06:43:05;;;;;;;10.05;3.45;;;;;;;;;;5282224;28;20074;-76
2023/06/27 06:45:36;;;;;;;12.60;2.85;;;;;;;;;;5282111;28;20052;-77
2023/06/27 06:48:08;;;;;;;16.60;2.73;;;;;;;;;;5282147;28;20043;-77
2023/06/27 06:50:39;;;;;;;10.93;2.50;;;;;;;;;;5281402;28;20361;-77
2023/06/27 06:53:10;;;;;;;8.90;2.33;;;;;;;;;;5282714;28;20012;-77
2023/06/27 06:55:41;;;;;;;12.20;3.10;;;;;;;;;;5282043;28;20020;-78
2023/06/27 06:58:13;;;;;;;7.75;2.03;;;;;;;;;;5281333;28;20041;-77
2023/06/27 07:00:44;;;;;;;7.10;2.25;;;;;;;;;;5281869;28;20020;-76
2023/06/27 07:03:15;;;;;;;13.20;2.88;;;;;;;;;;5282042;28;20490;-78
2023/06/27 07:05:46;;;;;;;11.07;2.78;;;;;;;;;;5281029;28;20024;-78
2023/06/27 07:08:17;;;;;;;7.45;2.42;;;;;;;;;;5282461;28;20025;-79
2023/06/27 07:10:49;;;;;;;8.57;2.43;;;;;;;;;;5280869;28;20121;-77
2023/06/27 07:13:20;;;;;;;9.75;2.92;;;;;;;;;;5281312;28;20282;-76
2023/06/27 07:15:51;;;;;;;12.37;2.33;;;;;;;;;;5281673;28;20085;-76
2023/06/27 07:18:22;;;;;;;10.30;2.67;;;;;;;;;;5281287;28;20270;-77
2023/06/27 07:20:53;;;;;;;8.87;2.20;;;;;;;;;;5281343;28;20294;-77
2023/06/27 07:23:26;;;;;;;8.10;2.20;;;;;;;;;;5281797;28;20799;-74
2023/06/27 07:25:57;;;;;;;8.10;2.47;;;;;;;;;;5280733;28;20035;-74
2023/06/27 07:28:29;;;;;;;9.88;1.95;;;;;;;;;;5281602;28;20024;-75
2023/06/27 07:31:00;;;;;;;10.10;1.83;;;;;;;;;;5281286;28;20028;-75
2023/06/27 07:33:32;;;;;;;9.80;1.48;;;;;;;;;;5281064;28;20024;-75
2023/06/27 07:36:03;;;;;;;7.05;2.10;;;;;;;;;;5281378;28;20021;-75
2023/06/27 07:38:35;;;;;;;7.00;1.67;;;;;;;;;;5279402;28;20026;-74
2023/06/27 07:41:06;;;;;;;6.30;1.63;;;;;;;;;;5277127;28;20020;-74
2023/06/27 07:43:37;;;;;;;7.18;1.20;;;;;;;;;;5299718;28;20598;-74
2023/06/27 07:46:08;;;;;;;3.93;0.80;;;;;;;;;;5259149;28;20025;-73
2023/06/27 07:48:39;;;;;;;5.18;0.90;;;;;;;;;;5274533;28;20259;-73
2023/06/27 07:51:11;;;;;;;10.13;1.33;;;;;;;;;;5281091;28;20053;-74
2023/06/27 07:53:42;;;;;;;6.50;1.10;;;;;;;;;;5280165;28;20281;-74
2023/06/27 07:56:13;;;;;;;3.60;0.70;;;;;;;;;;5281167;28;20765;-74
2023/06/27 07:58:44;;;;;;;9.05;1.00;;;;;;;;;;5280939;28;20028;-74
2023/06/27 08:01:16;;;;;;;6.00;0.70;;;;;;;;;;5280440;28;20029;-74
2023/06/27 08:03:47;;;;;;;6.80;0.85;;;;;;;;;;5280924;28;20013;-76
2023/06/27 08:06:19;;;;;;;5.82;1.05;;;;;;;;;;5278578;28;20085;-76
2023/06/27 08:08:50;;;;;;;6.60;0.80;;;;;;;;;;5278408;28;20166;-74
2023/06/27 08:11:22;;;;;;;4.00;0.65;;;;;;;;;;5281003;28;20059;-73
2023/06/27 08:13:53;;;;;;;4.63;0.80;;;;;;;;;;5280763;28;20017;-73
2023/06/27 08:16:24;;;;;;;5.10;0.90;;;;;;;;;;5272027;28;20103;-73
2023/06/27 08:18:55;;;;;;;5.63;0.60;;;;;;;;;;5277828;28;20267;-74
2023/06/27 08:21:27;;;;;;;2.55;0.50;;;;;;;;;;5281555;28;20016;-74
2023/06/27 08:23:58;;;;;;;3.50;0.30;;;;;;;;;;5282715;28;20021;-74
2023/06/27 08:26:29;;;;;;;5.53;0.70;;;;;;;;;;5284155;28;20035;-74
2023/06/27 08:29:00;;;;;;;5.00;0.40;;;;;;;;;;5282982;28;20064;-74
2023/06/27 08:31:32;;;;;;;4.73;0.47;;;;;;;;;;5284019;28;20535;-73
2023/06/27 08:34:03;;;;;;;3.93;0.53;;;;;;;;;;5283733;28;20266;-73
2023/06/27 08:36:34;;;;;;;4.95;0.60;;;;;;;;;;5282897;28;20273;-74
2023/06/27 08:39:05;;;;;;;2.43;0.43;;;;;;;;;;5284582;28;20078;-73
2023/06/27 08:41:37;;;;;;;2.67;0.60;;;;;;;;;;5284683;28;20267;-73
2023/06/27 08:44:08;;;;;;;4.68;0.50;;;;;;;;;;5282758;28;20020;-74
2023/06/27 08:46:39;;;;;;;2.53;0.60;;;;;;;;;;5284459;28;20024;-73
2023/06/27 08:49:14;;;;;;;2.25;0.60;;;;;;;;;;5283655;28;20270;-75
2023/06/27 08:51:48;;;;;;;5.60;0.65;;;;;;;;;;5282648;28;20060;-74
2023/06/27 08:54:32;;;;;;;3.85;0.60;;;;;;;;;;5284425;28;20012;-73
2023/06/27 08:57:03;;;;;;;3.42;0.50;;;;;;;;;;5283054;28;20415;-74
2023/06/27 08:59:37;;;;;;;3.92;0.50;;;;;;;;;;5281234;28;20036;-74
2023/06/27 09:02:11;;;;;;;2.55;0.55;;;;;;;;;;5282141;28;20036;-73
2023/06/27 09:04:43;;;;;;;5.32;0.50;;;;;;;;;;5281801;28;20023;-75
2023/06/27 09:07:14;;;;;;;2.92;0.47;;;;;;;;;;5284050;28;20036;-74
2023/06/27 09:09:47;;;;;;;3.83;0.70;;;;;;;;;;5285568;28;20024;-74
2023/06/27 09:12:18;;;;;;;4.38;0.60;;;;;;;;;;5285224;28;20107;-76
2023/06/27 09:14:49;;;;;;;6.95;0.63;;;;;;;;;;5279354;28;20469;-75
2023/06/27 09:17:20;;;;;;;6.30;0.45;;;;;;;;;;5283805;28;20013;-76
2023/06/27 09:19:52;;;;;;;3.20;0.40;;;;;;;;;;5282014;28;20025;-76
2023/06/27 09:22:23;;;;;;;8.75;0.60;;;;;;;;;;5281580;28;20028;-75
2023/06/27 09:25:10;;;;;;;2.28;0.40;;;;;;;;;;5281557;28;20630;-75
2023/06/27 09:27:41;;;;;;;3.97;0.30;;;;;;;;;;5281802;28;20036;-74
2023/06/27 09:30:12;;;;;;;1.45;0.30;;;;;;;;;;5282756;28;20119;-75
2023/06/27 09:32:57;;;;;;;4.35;0.50;;;;;;;;;;5278379;28;20460;-75
2023/06/27 09:35:31;;;;;;;3.13;0.38;;;;;;;;;;5282415;28;20031;-75
2023/06/27 09:38:06;;;;;;;2.30;0.30;;;;;;;;;;5283469;28;20091;-75
2023/06/27 09:40:38;;;;;;;3.70;0.40;;;;;;;;;;5283013;28;20485;-75
2023/06/27 09:43:11;;;;;;;2.42;0.20;;;;;;;;;;5283266;28;20013;-75
2023/06/27 09:45:42;;;;;;;4.03;0.30;;;;;;;;;;5283110;28;20066;-75
2023/06/27 09:48:17;;;;;;;4.60;0.40;;;;;;;;;;5283012;28;20012;-76
2023/06/27 09:50:49;;;;;;;1.67;0.30;;;;;;;;;;5282830;28;20491;-76
2023/06/27 09:53:22;;;;;;;4.85;0.30;;;;;;;;;;5283122;28;20777;-76
2023/06/27 09:55:57;;;;;;;4.80;0.50;;;;;;;;;;5282420;28;20424;-73
2023/06/27 09:58:29;;;;;;;1.45;0.20;;;;;;;;;;5281393;28;20066;-74
2023/06/27 10:01:05;;;;;;;2.58;0.30;;;;;;;;;;5280337;28;20035;-73
2023/06/27 10:03:36;;;;;;;4.28;0.22;;;;;;;;;;5282545;28;20024;-73
2023/06/27 10:06:07;;;;;;;2.05;0.25;;;;;;;;;;5282806;28;20025;-72
2023/06/27 10:08:38;;;;;;;2.33;0.30;;;;;;;;;;5281575;28;20020;-73
2023/06/27 10:11:10;;;;;;;2.33;0.30;;;;;;;;;;5289218;28;20262;-72
2023/06/27 10:13:41;;;;;;;2.07;0.20;;;;;;;;;;5280881;28;20028;-72
2023/06/27 10:16:12;;;;;;;4.15;0.50;;;;;;;;;;5282187;28;20063;-74
2023/06/27 10:18:44;;;;;;;2.33;0.28;;;;;;;;;;5280127;28;20077;-73
2023/06/27 10:21:16;;;;;;;1.55;0.20;;;;;;;;;;5280749;28;20108;-72
2023/06/27 10:23:49;;;;;;;0.50;0.15;;;;;;;;;;5281559;28;20024;-73
2023/06/27 10:26:21;;;;;;;1.92;0.13;;;;;;;;;;5280300;28;20130;-74
2023/06/27 10:28:52;;;;;;;2.30;0.30;;;;;;;;;;5281318;28;20352;-73
2023/06/27 10:31:36;;;;;;;1.95;0.28;;;;;;;;;;5282480;28;20267;-73
2023/06/27 10:34:07;;;;;;;2.25;0.20;;;;;;;;;;5282606;28;20024;-72
2023/06/27 10:36:51;;;;;;;3.60;0.20;;;;;;;;;;5281965;28;20020;-72
2023/06/27 10:39:27;;;;;;;1.23;0.20;;;;;;;;;;5282409;28;20029;-73
2023/06/27 10:42:01;;;;;;;3.47;0.20;;;;;;;;;;5282541;28;20009;-74
2023/06/27 10:44:36;;;;;;;0.80;0.10;;;;;;;;;;5280456;28;20028;-74
2023/06/27 10:47:34;;;;;;;2.25;0.20;;;;;;;;;;5282053;28;20023;-72
2023/06/27 10:50:19;;;;;;;2.83;0.40;;;;;;;;;;5276936;28;20056;-73
2023/06/27 10:53:00;;;;;;;3.97;0.40;;;;;;;;;;5281951;28;20050;-73
2023/06/27 10:55:32;;;;;;;1.45;0.20;;;;;;;;;;5282070;28;20054;-73
2023/06/27 10:58:10;;;;;;;2.17;0.30;;;;;;;;;;5281322;28;20016;-73
2023/06/27 11:00:41;;;;;;;1.90;0.17;;;;;;;;;;5281909;28;20021;-73
2023/06/27 11:03:18;;;;;;;3.40;0.30;;;;;;;;;;5282553;28;20028;-73
2023/06/27 11:05:51;;;;;;;3.20;0.20;;;;;;;;;;5281044;28;20021;-73
2023/06/27 11:08:26;;;;;;;1.95;0.20;;;;;;;;;;5282106;28;20017;-73
2023/06/27 11:11:04;;;;;;;1.88;0.30;;;;;;;;;;5280957;28;20526;-73
2023/06/27 11:13:36;;;;;;;1.77;0.50;;;;;;;;;;5281712;28;20023;-73
2023/06/27 11:16:08;;;;;;;0.90;0.10;;;;;;;;;;5279585;28;20016;-72
2023/06/27 11:18:39;;;;;;;2.03;0.20;;;;;;;;;;5279125;28;20498;-73
2023/06/27 11:21:10;;;;;;;2.03;0.20;;;;;;;;;;5281405;28;20051;-74
2023/06/27 11:23:42;;;;;;;1.58;0.20;;;;;;;;;;5281181;28;20626;-72
2023/06/27 11:26:13;;;;;;;0.73;0.20;;;;;;;;;;5280888;28;20107;-72
2023/06/27 11:28:45;;;;;;;1.40;0.20;;;;;;;;;;5281195;28;20095;-73
2023/06/27 11:31:16;;;;;;;0.80;0.20;;;;;;;;;;5281596;28;20065;-72
2023/06/27 11:33:56;;;;;;;2.72;0.22;;;;;;;;;;5280180;28;20024;-72
2023/06/27 11:36:27;;;;;;;0.90;0.20;;;;;;;;;;5281418;28;20024;-73
2023/06/27 11:38:58;;;;;;;2.07;0.20;;;;;;;;;;5280654;28;20386;-73
2023/06/27 11:41:30;;;;;;;1.90;0.30;;;;;;;;;;5281396;28;20309;-72
2023/06/27 11:44:01;;;;;;;5.15;0.40;;;;;;;;;;5279922;28;20275;-74
2023/06/27 11:46:33;;;;;;;2.90;0.30;;;;;;;;;;5278573;28;20428;-74
2023/06/27 11:49:04;;;;;;;3.50;0.32;;;;;;;;;;5279112;28;20278;-73
2023/06/27 11:51:42;;;;;;;1.40;0.23;;;;;;;;;;5280070;28;20048;-71
2023/06/27 11:54:16;;;;;;;1.65;0.22;;;;;;;;;;5279991;28;20255;-76
2023/06/27 11:56:47;;;;;;;1.98;0.40;;;;;;;;;;5279862;28;20040;-77
2023/06/27 11:59:29;;;;;;;3.67;0.25;;;;;;;;;;5284733;28;20017;-77
2023/06/27 12:02:01;;;;;;;1.52;0.35;;;;;;;;;;5289352;28;20024;-78
2023/06/27 12:04:32;;;;;;;2.90;0.30;;;;;;;;;;5283384;28;20032;-78
2023/06/27 12:07:17;;;;;;;3.20;0.30;;;;;;;;;;5282329;28;20032;-77
2023/06/27 12:10:02;;;;;;;3.13;0.40;;;;;;;;;;5282884;28;20617;-79
2023/06/27 12:12:36;;;;;;;2.10;0.30;;;;;;;;;;5283013;28;20048;-77
2023/06/27 12:15:11;;;;;;;2.80;0.22;;;;;;;;;;5282653;28;20025;-78
2023/06/27 12:17:55;;;;;;;3.05;0.30;;;;;;;;;;5284740;28;20479;-77
2023/06/27 12:20:27;;;;;;;2.22;0.30;;;;;;;;;;5286117;28;20032;-79
2023/06/27 12:22:58;;;;;;;9.30;0.40;;;;;;;;;;5305224;28;20093;-78
2023/06/27 12:25:29;;;;;;;1.45;0.30;;;;;;;;;;5300659;28;20024;-79
2023/06/27 12:28:01;;;;;;;3.80;0.30;;;;;;;;;;5283364;28;20622;-78
2023/06/27 12:30:32;;;;;;;2.95;0.40;;;;;;;;;;5285023;28;20291;-77
2023/06/27 12:33:05;;;;;;;1.38;0.30;;;;;;;;;;5284722;28;20009;-78
2023/06/27 12:35:37;;;;;;;2.10;0.30;;;;;;;;;;5284193;28;20016;-77
2023/06/27 12:38:08;;;;;;;4.18;0.40;;;;;;;;;;5284350;28;20020;-78
2023/06/27 12:40:39;;;;;;;3.85;0.40;;;;;;;;;;5284583;28;20099;-78
2023/06/27 12:43:11;;;;;;;1.85;0.35;;;;;;;;;;5283624;28;20012;-77
2023/06/27 12:45:57;;;;;;;4.53;0.30;;;;;;;;;;5284058;28;20329;-74
2023/06/27 12:48:28;;;;;;;2.35;0.30;;;;;;;;;;5284104;28;20032;-77
2023/06/27 12:50:59;;;;;;;4.43;0.30;;;;;;;;;;5283454;28;20178;-78
2023/06/27 12:53:30;;;;;;;4.15;0.45;;;;;;;;;;5284124;28;20025;-78
2023/06/27 12:56:02;;;;;;;1.70;0.40;;;;;;;;;;5283714;28;20422;-78
2023/06/27 12:58:34;;;;;;;12.73;0.50;;;;;;;;;;5283907;28;20036;-76
2023/06/27 13:01:05;;;;;;;2.42;0.30;;;;;;;;;;5282245;28;20028;-77
2023/06/27 13:03:36;;;;;;;2.47;0.30;;;;;;;;;;5282165;28;20017;-78
2023/06/27 13:06:07;;;;;;;3.38;0.30;;;;;;;;;;5283921;28;20467;-77
2023/06/27 13:08:39;;;;;;;1.40;0.30;;;;;;;;;;5283063;28;20485;-77
2023/06/27 13:11:10;;;;;;;2.05;0.40;;;;;;;;;;5283319;28;20090;-77
2023/06/27 13:13:41;;;;;;;3.77;0.40;;;;;;;;;;5283685;28;20067;-77
2023/06/27 13:16:13;;;;;;;1.88;0.20;;;;;;;;;;5284596;28;20266;-77
2023/06/27 13:18:47;;;;;;;2.37;0.37;;;;;;;;;;5282925;28;20482;-78
2023/06/27 13:21:18;;;;;;;4.32;0.40;;;;;;;;;;5284161;28;20271;-77
2023/06/27 13:23:50;;;;;;;4.40;0.30;;;;;;;;;;5283692;28;20122;-79
2023/06/27 13:26:21;;;;;;;2.08;0.30;;;;;;;;;;5283173;28;20082;-78
2023/06/27 13:28:53;;;;;;;1.63;0.40;;;;;;;;;;5281920;28;20025;-78
2023/06/27 13:31:24;;;;;;;2.92;0.40;;;;;;;;;;5283060;28;20427;-78
2023/06/27 13:33:55;;;;;;;3.20;0.30;;;;;;;;;;5283803;28;20130;-77
2023/06/27 13:36:26;;;;;;;3.50;0.40;;;;;;;;;;5283429;28;20052;-79
2023/06/27 13:38:59;;;;;;;3.50;0.45;;;;;;;;;;5283091;28;20266;-76
2023/06/27 13:41:31;;;;;;;8.65;0.40;;;;;;;;;;5283582;28;20016;-78
2023/06/27 13:44:02;;;;;;;3.00;0.30;;;;;;;;;;5283761;28;20425;-78
2023/06/27 13:46:33;;;;;;;3.88;0.30;;;;;;;;;;5288721;28;20024;-79
2023/06/27 13:49:09;;;;;;;6.68;0.50;;;;;;;;;;5304758;28;20027;-79
2023/06/27 13:51:40;;;;;;;5.00;0.40;;;;;;;;;;5303703;28;20631;-79
2023/06/27 13:54:11;;;;;;;2.80;0.50;;;;;;;;;;5303999;28;20125;-78
2023/06/27 13:56:43;;;;;;;3.73;0.40;;;;;;;;;;5303860;28;20326;-81
2023/06/27 13:59:14;;;;;;;8.73;0.30;;;;;;;;;;5303837;28;20609;-78
2023/06/27 14:01:45;;;;;;;1.30;0.20;;;;;;;;;;5303549;28;20028;-78
2023/06/27 14:04:17;;;;;;;3.23;0.40;;;;;;;;;;5304623;28;20095;-78
2023/06/27 14:06:52;;;;;;;4.55;0.25;;;;;;;;;;5302751;28;20028;-78
2023/06/27 14:09:24;;;;;;;3.30;0.50;;;;;;;;;;5286967;28;20025;-79
2023/06/27 14:11:55;;;;;;;2.67;0.30;;;;;;;;;;5282560;28;20032;-79
2023/06/27 14:14:26;;;;;;;4.68;0.30;;;;;;;;;;5282481;28;20017;-82
2023/06/27 14:16:59;;;;;;;1.60;0.30;;;;;;;;;;5282998;28;20021;-80
2023/06/27 14:19:30;;;;;;;3.15;0.32;;;;;;;;;;5282363;28;20035;-81
2023/06/27 14:22:01;;;;;;;2.03;0.28;;;;;;;;;;5280420;28;20021;-81
2023/06/27 14:24:32;;;;;;;1.83;0.40;;;;;;;;;;5281976;28;20012;-79
2023/06/27 14:27:04;;;;;;;2.00;0.30;;;;;;;;;;5282606;28;20043;-79
2023/06/27 14:29:35;;;;;;;2.65;0.20;;;;;;;;;;5280891;28;20028;-80
2023/06/27 14:32:06;;;;;;;1.98;0.32;;;;;;;;;;5300956;28;20021;-79
2023/06/27 14:34:37;;;;;;;3.17;0.30;;;;;;;;;;5311873;28;20107;-78
2023/06/27 14:37:09;;;;;;;2.27;0.30;;;;;;;;;;5302499;28;20540;-80
2023/06/27 14:39:40;;;;;;;8.23;0.70;;;;;;;;;;5301704;28;20278;-81
2023/06/27 14:42:11;;;;;;;2.92;0.30;;;;;;;;;;5300426;28;20756;-80
2023/06/27 14:44:42;;;;;;;3.80;0.60;;;;;;;;;;5300436;28;20069;-79
2023/06/27 14:47:13;;;;;;;4.60;0.40;;;;;;;;;;5301050;28;20266;-80
2023/06/27 14:49:45;;;;;;;2.40;0.30;;;;;;;;;;5299486;28;20266;-80
2023/06/27 14:52:16;;;;;;;2.40;0.30;;;;;;;;;;5278822;28;20058;-80
2023/06/27 14:54:47;;;;;;;2.33;0.25;;;;;;;;;;5279846;28;20423;-81
2023/06/27 14:57:19;;;;;;;1.85;0.30;;;;;;;;;;5282085;28;20540;-80
2023/06/27 14:59:50;;;;;;;2.10;0.30;;;;;;;;;;5282406;28;20077;-81
2023/06/27 15:02:21;;;;;;;3.10;0.30;;;;;;;;;;5282124;28;20091;-80
2023/06/27 15:04:52;;;;;;;3.73;0.40;;;;;;;;;;5280665;28;20042;-78
2023/06/27 15:07:23;;;;;;;2.30;0.57;;;;;;;;;;5281960;28;20817;-82
2023/06/27 15:09:55;;;;;;;1.90;0.40;;;;;;;;;;5281563;28;20341;-80